ESSD/BLE METAR and TAF weather

Enter ICAO airport designator
Station Type Date Time Source
ESSD METAR 2019/12/06 03:50 UTC NOAA

ESSD 060350Z AUTO 19008KT 9999 -RA VV046 04/03 Q0983


Station Type Date Time Source
ESSD Decoded METAR 2019/12/06 03:50 UTC NOAA

Borlange, Sweden (ESSD) 60-26N 015-31E 0M
Dec 05, 2019 - 10:50 PM EST / 2019.12.06 0350 UTC
Wind: from the S (190 degrees) at 9 MPH (8 KT):0
Visibility: greater than 7 mile(s):0
Sky conditions: obscured
Weather: light rain
Temperature: 39 F (4 C)
Dew Point: 37 F (3 C)
Relative Humidity: 93%
Pressure (altimeter): 29.03 in. Hg (0983 hPa)
ob: ESSD 060350Z AUTO 19008KT 9999 -RA VV046 04/03 Q0983
cycle: 4

Station Type Date Time Source
ESSD TAF 2018/05/02 04:48 UTC NOAA

TAF TAF ESSD 020320Z 0204/0412 27008KT 9999 BKN019 PROB40 0204/0209 BKN006

Example: see airport list